Terminal Aerodrome Forecast
Issued by NWS

Home | Current Version | Previous Version | Text Only | Print | Product List | Glossary On
Versions: 1 2 3 4 5 6 7 8 9 10 11 12 13 14
000
FTUS46 KSEW 261736
TAFPAE
TAF
KPAE 261736Z 2618/2718 25003KT P6SM SCT020 OVC026
     FM262000 21009KT P6SM BKN030
     FM270000 24009KT P6SM VCSH BKN040
     FM270200 00000KT P6SM -SHRA BKN020 OVC035
     FM271000 20009KT P6SM VCSH OVC015=

USA.gov is the U.S. government's official web portal to all federal, state and local government web resources and services.